createdAt,value
2023-12-16T00:01:10.188Z,50.67
2023-12-16T00:04:14.130Z,41.00
2023-12-16T00:07:17.089Z,44.00
2023-12-16T00:10:19.548Z,45.33
2023-12-16T00:13:22.988Z,43.00
2023-12-16T00:16:27.221Z,47.00
2023-12-16T00:19:31.609Z,49.33
2023-12-16T00:22:34.215Z,47.33
2023-12-16T00:25:37.033Z,49.67
2023-12-16T00:28:39.613Z,46.00
2023-12-16T00:31:43.430Z,31.00
2023-12-16T00:34:46.001Z,46.33
2023-12-16T00:37:48.757Z,47.33
2023-12-16T00:40:51.148Z,47.67
2023-12-16T00:43:53.888Z,48.00
2023-12-16T00:46:56.267Z,46.33
2023-12-16T00:49:59.132Z,50.00
2023-12-16T00:53:01.791Z,47.00
2023-12-16T00:56:05.044Z,46.67
2023-12-16T00:59:07.467Z,46.67
2023-12-16T01:02:10.808Z,44.67
2023-12-16T01:05:13.346Z,44.00
2023-12-16T01:08:17.110Z,47.67
2023-12-16T01:11:19.634Z,49.33
2023-12-16T01:14:22.418Z,46.33
2023-12-16T01:17:24.903Z,46.00
2023-12-16T01:20:27.756Z,46.00
2023-12-16T01:23:30.196Z,46.33
2023-12-16T01:26:32.988Z,47.67
2023-12-16T01:29:35.357Z,46.33
2023-12-16T01:32:38.159Z,43.00
2023-12-16T01:35:40.748Z,41.33
2023-12-16T01:38:43.572Z,46.33
2023-12-16T01:41:46.032Z,43.00
2023-12-16T01:44:48.750Z,38.00
2023-12-16T01:47:51.398Z,37.00
2023-12-16T01:50:54.445Z,43.67
2023-12-16T01:53:57.811Z,38.67
2023-12-16T01:57:01.251Z,43.00
2023-12-16T02:00:05.344Z,43.67
2023-12-16T02:03:16.581Z,48.33
2023-12-16T02:06:19.535Z,43.00
2023-12-16T02:09:23.220Z,46.00
2023-12-16T02:12:28.327Z,40.00
2023-12-16T02:15:31.233Z,43.00
2023-12-16T02:18:36.017Z,47.67
2023-12-16T02:21:39.173Z,46.33
2023-12-16T02:24:43.579Z,43.00
2023-12-16T02:27:47.721Z,44.33
2023-12-16T02:30:50.371Z,39.67
2023-12-16T02:33:53.336Z,43.00
2023-12-16T02:36:55.846Z,41.00
2023-12-16T02:39:58.689Z,43.67
2023-12-16T02:43:03.134Z,43.67
2023-12-16T02:46:06.007Z,40.00
2023-12-16T02:49:10.058Z,45.00
2023-12-16T02:52:12.926Z,45.67
2023-12-16T02:55:15.578Z,40.33
2023-12-16T02:58:18.503Z,43.67
2023-12-16T03:01:21.034Z,40.00
2023-12-16T03:04:23.964Z,42.00
2023-12-16T03:07:26.572Z,48.33
2023-12-16T03:10:29.484Z,42.33
2023-12-16T03:13:32.304Z,39.67
2023-12-16T03:16:35.130Z,38.67
2023-12-16T03:19:37.743Z,40.00
2023-12-16T03:22:40.598Z,43.33
2023-12-16T03:25:45.991Z,36.00
2023-12-16T03:28:48.768Z,36.33
2023-12-16T03:31:51.224Z,39.00
2023-12-16T03:34:54.074Z,47.00
2023-12-16T03:37:56.532Z,46.33
2023-12-16T03:40:59.846Z,43.33
2023-12-16T03:44:02.211Z,37.33
2023-12-16T03:47:05.097Z,43.67
2023-12-16T03:50:08.160Z,41.00
2023-12-16T03:53:11.106Z,42.33
2023-12-16T03:56:13.570Z,40.00
2023-12-16T03:59:16.324Z,42.00
2023-12-16T04:02:18.776Z,40.33
2023-12-16T04:05:21.605Z,40.67
2023-12-16T04:08:24.171Z,31.33
2023-12-16T04:11:26.933Z,40.33
2023-12-16T04:14:29.356Z,43.00
2023-12-16T04:17:32.187Z,37.67
2023-12-16T04:20:34.692Z,37.00
2023-12-16T04:23:37.396Z,42.00
2023-12-16T04:26:39.833Z,40.67
2023-12-16T04:29:42.548Z,33.67
2023-12-16T04:32:44.936Z,37.67
2023-12-16T04:35:47.764Z,37.33
2023-12-16T04:38:50.204Z,38.67
2023-12-16T04:41:53.110Z,40.33
2023-12-16T04:44:55.619Z,35.00
2023-12-16T04:47:58.571Z,33.67
2023-12-16T04:51:08.138Z,42.00
2023-12-16T04:54:11.074Z,37.00
2023-12-16T04:57:13.783Z,40.67
2023-12-16T05:00:16.956Z,31.67
2023-12-16T05:03:20.031Z,34.33
2023-12-16T05:06:22.867Z,34.67
2023-12-16T05:09:26.154Z,31.00
2023-12-16T05:12:35.553Z,32.33
2023-12-16T05:15:40.088Z,34.00
2023-12-16T05:18:42.923Z,35.00
2023-12-16T05:21:45.312Z,33.67
2023-12-16T05:24:49.773Z,40.33
2023-12-16T05:27:52.312Z,34.33
2023-12-16T05:30:55.214Z,36.67
2023-12-16T05:33:57.728Z,31.67
2023-12-16T05:37:00.611Z,34.00
2023-12-16T05:40:03.268Z,42.33
2023-12-16T05:43:06.507Z,37.67
2023-12-16T05:46:09.144Z,34.67
2023-12-16T05:49:12.246Z,31.33
2023-12-16T05:52:14.742Z,41.00
2023-12-16T05:55:17.640Z,37.33
2023-12-16T05:58:22.046Z,28.00
2023-12-16T06:01:25.215Z,31.33
2023-12-16T06:04:27.881Z,33.33
2023-12-16T06:07:30.952Z,39.67
2023-12-16T06:10:33.496Z,39.67
2023-12-16T06:13:36.373Z,39.67
2023-12-16T06:16:38.857Z,39.00
2023-12-16T06:19:41.795Z,38.33
2023-12-16T06:22:44.185Z,30.00
2023-12-16T06:25:48.374Z,39.00
2023-12-16T06:28:50.855Z,32.67
2023-12-16T06:31:53.656Z,38.00
2023-12-16T06:34:56.247Z,36.00
2023-12-16T06:37:59.131Z,37.33
2023-12-16T06:41:02.294Z,39.33
2023-12-16T06:44:05.350Z,38.00
2023-12-16T06:47:07.749Z,32.67
2023-12-16T06:50:10.877Z,39.67
2023-12-16T06:53:13.514Z,43.00
2023-12-16T06:56:16.372Z,35.00
2023-12-16T06:59:18.931Z,36.67
2023-12-16T07:02:21.848Z,27.67
2023-12-16T07:05:24.450Z,31.67
2023-12-16T07:08:27.289Z,32.00
2023-12-16T07:11:29.824Z,37.67
2023-12-16T07:14:34.340Z,37.67
2023-12-16T07:17:36.882Z,40.67
2023-12-16T07:20:40.020Z,37.67
2023-12-16T07:23:42.426Z,33.33
2023-12-16T07:26:45.198Z,36.00
2023-12-16T07:29:47.745Z,39.67
2023-12-16T07:32:50.648Z,32.33
2023-12-16T07:35:55.173Z,38.00
2023-12-16T07:38:59.540Z,36.67
2023-12-16T07:42:02.042Z,36.00
2023-12-16T07:45:05.666Z,30.33
2023-12-16T07:48:08.299Z,33.67
2023-12-16T07:51:18.819Z,34.33
2023-12-16T07:54:21.416Z,36.00
2023-12-16T07:57:24.639Z,38.00
2023-12-16T08:00:28.946Z,36.33
2023-12-16T08:03:31.748Z,43.00
2023-12-16T08:06:34.659Z,33.33
2023-12-16T08:09:37.524Z,31.00
2023-12-16T08:12:40.078Z,28.00
2023-12-16T08:15:43.002Z,38.67
2023-12-16T08:18:45.579Z,29.00
2023-12-16T08:21:49.172Z,27.33
2023-12-16T08:24:51.674Z,29.33
2023-12-16T08:27:54.701Z,29.67
2023-12-16T08:30:57.552Z,25.33
2023-12-16T08:34:00.521Z,29.00
2023-12-16T08:37:03.185Z,29.67
2023-12-16T08:40:06.742Z,29.33
2023-12-16T08:43:09.612Z,27.33
2023-12-16T08:46:13.679Z,28.00
2023-12-16T08:49:16.779Z,22.67
2023-12-16T08:52:19.742Z,24.00
2023-12-16T08:55:25.505Z,24.33
2023-12-16T08:58:28.504Z,23.67
2023-12-16T09:01:31.935Z,21.33
2023-12-16T09:04:34.869Z,20.00
2023-12-16T09:07:37.796Z,25.33
2023-12-16T09:10:41.156Z,22.50
2023-12-16T09:13:44.120Z,23.00
2023-12-16T09:16:47.025Z,28.67
2023-12-16T09:19:49.569Z,29.33
2023-12-16T09:22:52.596Z,23.00
2023-12-16T09:25:55.036Z,30.00
2023-12-16T09:28:57.871Z,23.00
2023-12-16T09:32:00.529Z,23.33
2023-12-16T09:35:04.373Z,22.50
2023-12-16T09:38:07.000Z,26.25
2023-12-16T09:41:23.758Z,21.25
2023-12-16T09:44:26.259Z,20.75
2023-12-16T09:47:29.274Z,23.75
2023-12-16T09:50:32.514Z,23.50
2023-12-16T09:53:35.306Z,27.00
2023-12-16T09:56:39.594Z,17.50
2023-12-16T09:59:42.641Z,25.50
2023-12-16T10:02:49.088Z,20.50
2023-12-16T10:05:52.896Z,16.50
2023-12-16T10:08:55.357Z,16.50
2023-12-16T10:11:59.171Z,23.75
2023-12-16T10:15:01.600Z,21.75
2023-12-16T10:18:05.245Z,20.50
2023-12-16T10:21:12.015Z,26.00
2023-12-16T10:24:18.827Z,21.50
2023-12-16T10:27:24.609Z,18.00
2023-12-16T10:30:27.679Z,17.00
2023-12-16T10:33:30.865Z,21.25
2023-12-16T10:36:33.955Z,22.25
2023-12-16T10:39:37.471Z,26.50
2023-12-16T10:42:40.358Z,23.00
2023-12-16T10:45:42.841Z,20.50
2023-12-16T10:48:49.689Z,27.00
2023-12-16T10:51:53.593Z,20.25
2023-12-16T10:55:01.678Z,25.25
2023-12-16T10:58:14.464Z,23.25
2023-12-16T11:01:23.652Z,24.75
2023-12-16T11:04:34.549Z,30.75
2023-12-16T11:07:43.186Z,26.25
2023-12-16T11:10:46.052Z,28.25
2023-12-16T11:13:51.678Z,28.00
2023-12-16T11:17:01.385Z,27.25
2023-12-16T11:20:07.861Z,27.00
2023-12-16T11:23:16.237Z,28.00
2023-12-16T11:26:19.219Z,29.00
2023-12-16T11:29:23.519Z,27.00
2023-12-16T11:32:28.270Z,23.25
2023-12-16T11:35:37.022Z,26.00
2023-12-16T11:38:45.260Z,42.00
2023-12-16T11:41:49.680Z,28.50
2023-12-16T11:44:54.135Z,33.50
2023-12-16T11:47:56.978Z,29.00
2023-12-16T11:50:59.953Z,33.25
2023-12-16T11:54:05.244Z,30.00
2023-12-16T11:57:08.085Z,32.25
2023-12-16T12:00:11.360Z,31.75
2023-12-16T12:03:14.321Z,32.75
2023-12-16T12:06:17.469Z,36.25
2023-12-16T12:09:20.408Z,34.00
2023-12-16T12:12:22.964Z,36.33
2023-12-16T12:15:25.895Z,33.00
2023-12-16T12:18:29.676Z,32.00
2023-12-16T12:21:36.493Z,32.00
2023-12-16T12:24:39.313Z,37.50
2023-12-16T12:27:42.507Z,35.50
2023-12-16T12:30:45.022Z,34.75
2023-12-16T12:33:51.647Z,39.00
2023-12-16T12:36:57.531Z,35.75
2023-12-16T12:40:00.606Z,36.00
2023-12-16T12:43:03.286Z,32.67
2023-12-16T12:46:09.288Z,30.67
2023-12-16T12:49:12.144Z,32.33
2023-12-16T12:52:14.949Z,38.33
2023-12-16T12:55:19.557Z,38.00
2023-12-16T12:58:28.865Z,35.33
2023-12-16T13:01:33.269Z,38.33
2023-12-16T13:04:47.037Z,39.33
2023-12-16T13:07:50.536Z,31.25
2023-12-16T13:10:53.658Z,29.75
2023-12-16T13:13:56.276Z,33.25
2023-12-16T13:17:00.105Z,29.00
2023-12-16T13:20:02.683Z,28.75
2023-12-16T13:23:06.017Z,31.50
2023-12-16T13:26:13.987Z,33.75
2023-12-16T13:29:18.541Z,30.50
2023-12-16T13:32:21.126Z,31.75
2023-12-16T13:35:24.293Z,25.50
2023-12-16T13:38:26.906Z,31.25
2023-12-16T13:41:29.901Z,28.00
2023-12-16T13:44:33.167Z,34.50
2023-12-16T13:47:36.361Z,31.50
2023-12-16T13:50:39.165Z,27.25
2023-12-16T13:53:42.038Z,21.50
2023-12-16T13:56:44.727Z,24.75
2023-12-16T13:59:47.748Z,27.25
2023-12-16T14:02:50.602Z,26.75
2023-12-16T14:05:54.009Z,20.75
2023-12-16T14:08:56.757Z,22.25
2023-12-16T14:11:59.811Z,25.50
2023-12-16T14:15:02.479Z,26.50
2023-12-16T14:18:05.659Z,26.75
2023-12-16T14:21:08.361Z,28.50
2023-12-16T14:24:11.335Z,31.25
2023-12-16T14:27:13.918Z,28.25
2023-12-16T14:30:18.397Z,31.33
2023-12-16T14:33:21.556Z,20.00
2023-12-16T14:36:24.517Z,30.75
2023-12-16T14:39:27.002Z,25.50
2023-12-16T14:42:29.858Z,28.25
2023-12-16T14:45:32.278Z,28.33
2023-12-16T14:48:35.293Z,31.00
2023-12-16T14:51:39.118Z,31.67
2023-12-16T14:54:42.055Z,35.00
2023-12-16T14:57:44.554Z,32.50
2023-12-16T15:00:47.703Z,29.50
2023-12-16T15:03:50.354Z,38.00
2023-12-16T15:07:01.528Z,38.00
2023-12-16T15:10:04.866Z,36.33
2023-12-16T15:13:08.903Z,44.33
2023-12-16T15:16:12.266Z,43.00
2023-12-16T15:19:15.620Z,44.67
2023-12-16T15:22:18.119Z,43.00
2023-12-16T15:25:21.210Z,43.33
2023-12-16T15:28:23.811Z,43.00
2023-12-16T15:31:26.894Z,41.00
2023-12-16T15:34:30.300Z,35.00
2023-12-16T15:37:33.937Z,37.33
2023-12-16T15:40:37.315Z,27.33
2023-12-16T15:43:40.205Z,30.33
2023-12-16T15:46:43.101Z,42.67
2023-12-16T15:49:45.981Z,36.67
2023-12-16T15:52:48.529Z,35.00
2023-12-16T15:55:51.467Z,39.33
2023-12-16T15:58:53.876Z,44.00
2023-12-16T16:01:56.880Z,39.67
2023-12-16T16:04:59.389Z,37.33
2023-12-16T16:08:04.986Z,40.00
2023-12-16T16:11:08.070Z,30.67
2023-12-16T16:14:11.350Z,36.75
2023-12-16T16:17:15.890Z,32.00
2023-12-16T16:20:18.751Z,31.75
2023-12-16T16:23:21.732Z,32.75
2023-12-16T16:26:26.884Z,24.25
2023-12-16T16:29:29.616Z,27.75
2023-12-16T16:32:32.640Z,24.75
2023-12-16T16:35:35.561Z,24.00
2023-12-16T16:38:38.590Z,26.75
2023-12-16T16:41:41.149Z,27.00
2023-12-16T16:44:44.139Z,21.25
2023-12-16T16:47:46.830Z,18.25
2023-12-16T16:50:50.264Z,21.00
2023-12-16T16:53:52.878Z,17.25
2023-12-16T16:56:55.982Z,23.00
2023-12-16T17:00:05.165Z,20.25
2023-12-16T17:03:08.176Z,26.50
2023-12-16T17:06:11.041Z,21.25
2023-12-16T17:09:14.610Z,28.00
2023-12-16T17:12:18.257Z,22.75
2023-12-16T17:15:21.288Z,32.25
2023-12-16T17:18:25.608Z,29.33
2023-12-16T17:21:28.826Z,27.50
2023-12-16T17:24:31.317Z,33.25
2023-12-16T17:27:34.369Z,34.67
2023-12-16T17:30:37.068Z,30.33
2023-12-16T17:33:40.821Z,28.25
2023-12-16T17:36:44.394Z,29.33
2023-12-16T17:39:47.329Z,38.00
2023-12-16T17:42:49.931Z,35.67
2023-12-16T17:45:53.041Z,40.00
2023-12-16T17:48:58.321Z,43.33
2023-12-16T17:52:01.403Z,41.33
2023-12-16T17:55:04.157Z,42.00
2023-12-16T17:58:07.448Z,40.33
2023-12-16T18:01:10.142Z,44.33
2023-12-16T18:04:16.314Z,46.33
2023-12-16T18:07:19.107Z,45.00
2023-12-16T18:10:22.337Z,45.67
2023-12-16T18:13:24.834Z,43.67
2023-12-16T18:16:27.766Z,47.00
2023-12-16T18:19:31.095Z,44.33
2023-12-16T18:22:34.059Z,42.67
2023-12-16T18:25:36.486Z,45.00
2023-12-16T18:28:39.526Z,47.33
2023-12-16T18:31:42.261Z,46.33
2023-12-16T18:34:45.453Z,47.67
2023-12-16T18:37:48.083Z,42.00
2023-12-16T18:40:51.023Z,48.00
2023-12-16T18:43:54.705Z,47.00
2023-12-16T18:46:57.567Z,47.00
2023-12-16T18:50:00.733Z,45.33
2023-12-16T18:53:03.705Z,47.00
2023-12-16T18:56:07.735Z,48.67
2023-12-16T18:59:10.622Z,42.33
2023-12-16T19:02:13.067Z,45.33
2023-12-16T19:05:15.993Z,44.33
2023-12-16T19:08:19.052Z,47.00
2023-12-16T19:11:21.957Z,44.33
2023-12-16T19:14:25.285Z,45.33
2023-12-16T19:17:28.226Z,47.33
2023-12-16T19:20:30.887Z,43.67
2023-12-16T19:23:33.702Z,43.00
2023-12-16T19:26:36.276Z,31.00
2023-12-16T19:29:40.095Z,39.00
2023-12-16T19:32:43.003Z,41.33
2023-12-16T19:35:46.148Z,36.00
2023-12-16T19:38:48.827Z,35.00
2023-12-16T19:41:53.130Z,35.67
2023-12-16T19:44:55.987Z,33.33
2023-12-16T19:47:58.916Z,42.00
2023-12-16T19:51:03.823Z,36.33
2023-12-16T19:54:08.107Z,34.67
2023-12-16T19:57:11.066Z,32.50
2023-12-16T20:00:14.717Z,32.33
2023-12-16T20:03:18.213Z,33.67
2023-12-16T20:06:21.432Z,29.33
2023-12-16T20:09:25.068Z,32.67
2023-12-16T20:12:28.033Z,32.00
2023-12-16T20:15:30.647Z,32.00
2023-12-16T20:18:33.680Z,35.00
2023-12-16T20:21:39.488Z,30.75
2023-12-16T20:24:45.146Z,30.33
2023-12-16T20:27:47.868Z,32.33
2023-12-16T20:30:50.962Z,30.67
2023-12-16T20:33:57.786Z,30.00
2023-12-16T20:37:02.148Z,33.00
2023-12-16T20:40:23.637Z,30.33
2023-12-16T20:43:27.178Z,34.00
2023-12-16T20:46:30.198Z,38.67
2023-12-16T20:49:33.270Z,28.67
2023-12-16T20:52:36.537Z,30.33
2023-12-16T20:55:39.541Z,30.00
2023-12-16T20:58:42.262Z,27.67
2023-12-16T21:01:45.168Z,28.33
2023-12-16T21:04:47.738Z,30.00
2023-12-16T21:07:51.076Z,33.33
2023-12-16T21:10:53.738Z,32.00
2023-12-16T21:13:56.631Z,37.33
2023-12-16T21:16:59.184Z,36.67
2023-12-16T21:20:02.473Z,36.33
2023-12-16T21:23:05.282Z,32.33
2023-12-16T21:26:08.100Z,35.00
2023-12-16T21:29:13.186Z,35.00
2023-12-16T21:32:16.864Z,34.00
2023-12-16T21:35:19.683Z,35.33
2023-12-16T21:38:22.557Z,31.67
2023-12-16T21:41:25.083Z,35.00
2023-12-16T21:44:29.023Z,36.67
2023-12-16T21:47:32.064Z,31.33
2023-12-16T21:50:35.618Z,37.00
2023-12-16T21:53:38.814Z,38.33
2023-12-16T21:56:41.917Z,37.67
2023-12-16T21:59:44.581Z,40.33
2023-12-16T22:02:47.459Z,38.33
2023-12-16T22:05:52.845Z,43.33
2023-12-16T22:08:56.502Z,41.00
2023-12-16T22:12:01.309Z,41.33
2023-12-16T22:15:04.441Z,35.00
2023-12-16T22:18:06.998Z,33.00
2023-12-16T22:21:09.964Z,43.00
2023-12-16T22:24:12.694Z,41.33
2023-12-16T22:27:19.486Z,30.00
2023-12-16T22:30:22.284Z,35.00
2023-12-16T22:33:25.592Z,44.33
2023-12-16T22:36:28.085Z,45.33
2023-12-16T22:39:30.830Z,43.00
2023-12-16T22:42:33.404Z,37.67
2023-12-16T22:45:36.307Z,41.00
2023-12-16T22:48:39.418Z,43.00
2023-12-16T22:51:43.655Z,38.33
2023-12-16T22:54:46.469Z,43.00
2023-12-16T22:57:49.320Z,40.33
2023-12-16T23:00:51.786Z,41.00
2023-12-16T23:06:57.135Z,35.33
2023-12-16T23:10:00.046Z,41.67
2023-12-16T23:13:02.644Z,43.67
2023-12-16T23:16:05.913Z,43.33
2023-12-16T23:19:10.936Z,36.67
2023-12-16T23:22:14.003Z,38.00
2023-12-16T23:25:19.416Z,40.33
2023-12-16T23:28:22.419Z,41.33
2023-12-16T23:31:25.450Z,40.00
2023-12-16T23:34:28.314Z,41.00
2023-12-16T23:37:31.047Z,41.33
2023-12-16T23:40:33.875Z,34.67
2023-12-16T23:43:36.488Z,40.67
2023-12-16T23:46:39.300Z,42.33
2023-12-16T23:49:41.867Z,41.33
2023-12-16T23:52:44.758Z,41.00
2023-12-16T23:55:47.349Z,41.67
2023-12-16T23:58:50.251Z,30.33
